createdAt,value
2018-03-06T00:02:09.307Z,0.40
2018-03-06T00:04:37.558Z,0.30
2018-03-06T00:07:05.737Z,0.30
2018-03-06T00:09:33.912Z,0.30
2018-03-06T00:12:02.094Z,0.20
2018-03-06T00:14:30.257Z,0.20
2018-03-06T00:16:59.120Z,0.20
2018-03-06T00:19:28.070Z,0.30
2018-03-06T00:21:56.262Z,0.30
2018-03-06T00:24:25.510Z,0.40
2018-03-06T00:26:53.676Z,0.50
2018-03-06T00:29:21.883Z,0.50
2018-03-06T00:31:50.059Z,0.50
2018-03-06T00:34:24.532Z,0.30
2018-03-06T00:39:50.708Z,0.10
2018-03-06T00:42:32.668Z,0.00
2018-03-06T00:45:01.785Z,0.00
2018-03-06T00:47:29.958Z,-0.10
2018-03-06T00:49:58.148Z,-0.10
2018-03-06T00:52:26.323Z,-0.10
2018-03-06T00:54:54.512Z,-0.10
2018-03-06T00:57:23.405Z,-0.20
2018-03-06T00:59:51.610Z,-0.20
2018-03-06T01:02:19.787Z,-0.10
2018-03-06T01:04:48.002Z,0.10
2018-03-06T01:07:16.193Z,0.10
2018-03-06T01:09:44.373Z,0.00
2018-03-06T01:12:12.538Z,-0.10
2018-03-06T01:14:40.725Z,-0.10
2018-03-06T01:17:09.339Z,-0.10
2018-03-06T01:19:37.518Z,0.00
2018-03-06T01:22:05.717Z,-0.10
2018-03-06T01:24:34.041Z,-0.10
2018-03-06T01:27:02.210Z,0.00
2018-03-06T01:29:30.393Z,0.00
2018-03-06T01:31:58.552Z,0.00
2018-03-06T01:34:26.729Z,0.00
2018-03-06T01:36:54.913Z,0.00
2018-03-06T01:39:23.806Z,-0.10
2018-03-06T01:41:52.022Z,-0.10
2018-03-06T01:44:21.067Z,-0.20
2018-03-06T01:46:49.247Z,-0.20
2018-03-06T01:49:17.411Z,-0.30
2018-03-06T01:51:57.262Z,-0.30
2018-03-06T01:54:26.460Z,-0.30
2018-03-06T01:56:54.638Z,-0.40
2018-03-06T01:59:23.047Z,-0.50
2018-03-06T02:01:51.226Z,-0.50
2018-03-06T02:04:20.373Z,-0.40
2018-03-06T02:06:48.570Z,-0.30
2018-03-06T02:09:16.754Z,-0.30
2018-03-06T02:11:44.939Z,-0.40
2018-03-06T02:14:13.135Z,-0.50
2018-03-06T02:16:42.069Z,-0.60
2018-03-06T02:19:10.243Z,-0.60
2018-03-06T02:21:38.423Z,-0.60
2018-03-06T02:24:06.612Z,-0.50
2018-03-06T02:26:34.811Z,-0.60
2018-03-06T02:29:03.044Z,-0.50
2018-03-06T02:31:31.239Z,-0.40
2018-03-06T02:33:59.486Z,-0.40
2018-03-06T02:36:27.673Z,-0.40
2018-03-06T02:38:57.513Z,-0.50
2018-03-06T02:41:25.721Z,-0.50
2018-03-06T02:43:54.658Z,-0.50
2018-03-06T02:46:22.856Z,-0.50
2018-03-06T02:48:51.028Z,-0.50
2018-03-06T02:51:19.226Z,-0.50
2018-03-06T02:53:49.196Z,-0.70
2018-03-06T02:56:17.406Z,-0.70
2018-03-06T02:58:46.366Z,-0.80
2018-03-06T03:01:14.557Z,-0.80
2018-03-06T03:03:42.744Z,-0.80
2018-03-06T03:06:10.916Z,-0.80
2018-03-06T03:08:39.117Z,-0.90
2018-03-06T03:11:07.309Z,-0.80
2018-03-06T03:13:36.396Z,-0.70
2018-03-06T03:16:04.604Z,-0.70
2018-03-06T03:18:32.791Z,-0.80
2018-03-06T03:21:00.969Z,-0.90
2018-03-06T03:23:29.163Z,-1.00
2018-03-06T03:25:57.346Z,-1.00
2018-03-06T03:28:26.293Z,-0.90
2018-03-06T03:30:54.493Z,-0.90
2018-03-06T03:33:22.732Z,-0.80
2018-03-06T03:35:50.920Z,-0.80
2018-03-06T03:38:19.110Z,-0.90
2018-03-06T03:40:47.489Z,-0.90
2018-03-06T03:43:15.733Z,-0.90
2018-03-06T03:45:43.920Z,-0.90
2018-03-06T03:48:12.096Z,-1.00
2018-03-06T03:50:40.263Z,-1.00
2018-03-06T03:53:08.454Z,-1.10
2018-03-06T03:55:36.632Z,-1.10
2018-03-06T03:58:04.839Z,-1.10
2018-03-06T04:00:33.783Z,-1.10
2018-03-06T04:03:01.954Z,-1.10
2018-03-06T04:05:30.152Z,-1.10
2018-03-06T04:07:58.318Z,-1.10
2018-03-06T04:10:26.516Z,-0.90
2018-03-06T04:12:54.690Z,-1.00
2018-03-06T04:15:22.952Z,-1.00
2018-03-06T04:17:51.139Z,-1.00
2018-03-06T04:20:19.338Z,-0.90
2018-03-06T04:22:48.279Z,-1.00
2018-03-06T04:25:16.456Z,-1.00
2018-03-06T04:27:44.629Z,-1.00
2018-03-06T04:30:12.819Z,-1.10
2018-03-06T04:32:41.023Z,-1.00
2018-03-06T04:35:15.489Z,-1.20
2018-03-06T04:37:43.854Z,-1.20
2018-03-06T04:40:12.127Z,-1.20
2018-03-06T04:42:40.373Z,-1.30
2018-03-06T04:45:09.765Z,-1.30
2018-03-06T04:47:37.954Z,-1.30
2018-03-06T04:50:07.886Z,-1.40
2018-03-06T04:52:36.103Z,-1.40
2018-03-06T04:55:07.011Z,-1.40
2018-03-06T04:57:35.204Z,-1.40
2018-03-06T05:00:04.127Z,-1.40
2018-03-06T05:02:32.384Z,-1.40
2018-03-06T05:05:00.571Z,-1.40
2018-03-06T05:07:28.762Z,-1.20
2018-03-06T05:09:57.599Z,-1.20
2018-03-06T05:12:25.806Z,-1.10
2018-03-06T05:15:05.742Z,-1.20
2018-03-06T05:17:36.075Z,-1.20
2018-03-06T05:20:04.980Z,-1.20
2018-03-06T05:22:33.185Z,-1.30
2018-03-06T05:25:06.245Z,-1.20
2018-03-06T05:27:34.758Z,-1.20
2018-03-06T05:30:05.024Z,-1.20
2018-03-06T05:32:34.080Z,-1.30
2018-03-06T05:35:04.359Z,-1.30
2018-03-06T05:37:32.878Z,-1.30
2018-03-06T05:40:01.090Z,-1.40
2018-03-06T05:42:29.543Z,-1.40
2018-03-06T05:44:59.855Z,-1.40
2018-03-06T05:47:28.777Z,-1.20
2018-03-06T05:49:57.215Z,-1.20
2018-03-06T05:52:25.412Z,-1.20
2018-03-06T05:54:54.754Z,-1.30
2018-03-06T05:57:22.956Z,-1.20
2018-03-06T05:59:51.156Z,-1.30
2018-03-06T06:02:19.610Z,-1.20
2018-03-06T06:04:50.922Z,-1.20
2018-03-06T06:07:20.065Z,-1.30
2018-03-06T06:09:48.982Z,-1.20
2018-03-06T06:12:17.181Z,-1.20
2018-03-06T06:14:48.918Z,-1.20
2018-03-06T06:17:17.836Z,-1.20
2018-03-06T06:19:46.241Z,-1.20
2018-03-06T06:22:14.420Z,-1.10
2018-03-06T06:24:42.674Z,-1.10
2018-03-06T06:27:10.860Z,-1.00
2018-03-06T06:29:39.025Z,-0.80
2018-03-06T06:32:09.251Z,-0.80
2018-03-06T06:34:43.690Z,-1.00
2018-03-06T06:37:12.613Z,-0.70
2018-03-06T06:39:42.898Z,-0.60
2018-03-06T06:42:11.131Z,-0.50
2018-03-06T06:44:42.484Z,-0.40
2018-03-06T06:47:12.486Z,-0.40
2018-03-06T06:49:41.333Z,-0.30
2018-03-06T06:52:10.343Z,-0.30
2018-03-06T06:54:40.448Z,-0.20
2018-03-06T06:57:08.688Z,-0.20
2018-03-06T06:59:36.868Z,-0.10
2018-03-06T07:02:05.244Z,0.00
2018-03-06T07:04:33.491Z,0.10
2018-03-06T07:07:01.694Z,0.30
2018-03-06T07:09:30.863Z,0.40
2018-03-06T07:12:02.114Z,0.30
2018-03-06T07:14:32.415Z,0.30
2018-03-06T07:17:06.876Z,0.30
2018-03-06T07:19:35.052Z,0.30
2018-03-06T07:22:04.205Z,0.40
2018-03-06T07:24:42.635Z,0.60
2018-03-06T07:30:20.467Z,0.90
2018-03-06T07:32:50.423Z,0.90
2018-03-06T07:35:21.308Z,1.00
2018-03-06T07:37:50.391Z,1.20
2018-03-06T07:40:20.336Z,1.30
2018-03-06T07:42:49.212Z,1.40
2018-03-06T07:48:13.136Z,1.50
2018-03-06T07:50:47.608Z,1.50
2018-03-06T07:53:17.604Z,1.60
2018-03-06T07:55:47.128Z,1.80
2018-03-06T07:58:15.536Z,1.90
2018-03-06T08:00:44.179Z,2.00
2018-03-06T08:03:16.652Z,2.10
2018-03-06T08:05:47.041Z,2.30
2018-03-06T08:08:15.211Z,2.40
2018-03-06T08:10:44.744Z,2.60
2018-03-06T08:13:16.143Z,2.70
2018-03-06T08:15:44.907Z,2.90
2018-03-06T08:18:13.931Z,3.00
2018-03-06T08:20:42.937Z,3.10
2018-03-06T08:23:11.113Z,3.20
2018-03-06T08:25:40.907Z,3.20
2018-03-06T08:28:09.710Z,3.40
2018-03-06T08:30:39.935Z,3.50
2018-03-06T08:33:08.659Z,3.60
2018-03-06T08:35:36.865Z,3.70
2018-03-06T08:38:05.894Z,3.80
2018-03-06T08:40:34.065Z,4.00
2018-03-06T08:43:02.239Z,4.20
2018-03-06T08:45:30.389Z,4.30
2018-03-06T08:47:59.414Z,4.70
2018-03-06T08:50:28.117Z,4.70
2018-03-06T08:52:56.367Z,4.90
2018-03-06T08:55:26.349Z,5.00
2018-03-06T08:57:54.517Z,5.20
2018-03-06T09:00:22.692Z,5.30
2018-03-06T09:02:50.887Z,5.60
2018-03-06T09:05:21.797Z,5.80
2018-03-06T09:07:50.832Z,5.70
2018-03-06T09:10:19.422Z,5.40
2018-03-06T09:12:47.602Z,5.30
2018-03-06T09:15:19.214Z,5.50
2018-03-06T09:17:51.060Z,5.60
2018-03-06T09:20:21.055Z,5.70
2018-03-06T09:22:52.932Z,5.90
2018-03-06T09:25:23.455Z,5.90
2018-03-06T09:27:51.648Z,6.20
2018-03-06T09:30:19.820Z,6.40
2018-03-06T09:32:49.665Z,6.60
2018-03-06T09:35:18.613Z,6.90
2018-03-06T09:37:46.813Z,6.90
2018-03-06T09:40:18.758Z,7.10
2018-03-06T09:42:47.721Z,7.50
2018-03-06T09:45:16.056Z,7.50
2018-03-06T09:47:45.059Z,7.50
2018-03-06T09:50:13.376Z,7.70
2018-03-06T09:52:41.586Z,7.70
2018-03-06T09:55:10.318Z,7.60
2018-03-06T09:57:38.795Z,7.60
2018-03-06T10:00:07.262Z,7.70
2018-03-06T10:02:35.966Z,7.80
2018-03-06T10:05:05.393Z,7.80
2018-03-06T10:07:33.563Z,7.70
2018-03-06T10:10:01.798Z,7.70
2018-03-06T10:12:30.739Z,7.90
2018-03-06T10:14:59.011Z,7.90
2018-03-06T10:17:27.156Z,8.10
2018-03-06T10:19:56.059Z,8.40
2018-03-06T10:22:24.251Z,8.50
2018-03-06T10:24:53.537Z,8.60
2018-03-06T10:27:22.155Z,8.70
2018-03-06T10:29:51.361Z,8.80
2018-03-06T10:32:22.114Z,8.80
2018-03-06T10:34:51.434Z,8.60
2018-03-06T10:37:19.616Z,8.40
2018-03-06T10:39:47.837Z,8.40
2018-03-06T10:42:16.390Z,8.60
2018-03-06T10:44:45.061Z,8.70
2018-03-06T10:47:15.059Z,8.60
2018-03-06T10:49:44.789Z,8.70
2018-03-06T10:52:12.967Z,8.70
2018-03-06T10:54:42.054Z,8.90
2018-03-06T10:57:10.262Z,9.00
2018-03-06T10:59:38.471Z,9.10
2018-03-06T11:02:06.651Z,9.20
2018-03-06T11:04:35.805Z,9.50
2018-03-06T11:07:04.047Z,9.50
2018-03-06T11:09:33.126Z,9.80
2018-03-06T11:12:03.687Z,10.30
2018-03-06T11:14:31.985Z,10.30
2018-03-06T11:17:01.089Z,10.60
2018-03-06T11:19:30.335Z,10.70
2018-03-06T11:21:58.544Z,10.80
2018-03-06T11:24:26.736Z,10.80
2018-03-06T11:26:54.909Z,10.80
2018-03-06T11:29:23.365Z,10.80
2018-03-06T11:31:51.527Z,10.80
2018-03-06T11:34:19.839Z,10.90
2018-03-06T11:36:48.674Z,11.10
2018-03-06T11:39:17.636Z,11.50
2018-03-06T11:41:45.822Z,11.40
2018-03-06T11:44:14.978Z,11.60
2018-03-06T11:46:43.156Z,11.80
2018-03-06T11:49:11.452Z,11.90
2018-03-06T11:51:39.925Z,12.00
2018-03-06T11:54:08.183Z,12.10
2018-03-06T11:56:37.193Z,12.20
2018-03-06T11:59:05.384Z,12.20
2018-03-06T12:01:35.366Z,12.20
2018-03-06T12:04:04.697Z,12.30
2018-03-06T12:06:33.752Z,12.20
2018-03-06T12:09:02.721Z,12.30
2018-03-06T12:11:32.972Z,12.40
2018-03-06T12:14:01.497Z,12.50
2018-03-06T12:16:29.827Z,12.10
2018-03-06T12:19:02.606Z,11.80
2018-03-06T12:21:30.833Z,11.90
2018-03-06T12:23:59.523Z,12.10
2018-03-06T12:26:28.878Z,12.10
2018-03-06T12:28:57.636Z,12.20
2018-03-06T12:31:26.571Z,12.30
2018-03-06T12:33:54.840Z,12.40
2018-03-06T12:36:24.233Z,12.60
2018-03-06T12:38:52.682Z,12.80
2018-03-06T12:41:22.451Z,12.60
2018-03-06T12:43:50.616Z,12.60
2018-03-06T12:46:19.635Z,12.60
2018-03-06T12:48:48.736Z,12.60
2018-03-06T12:51:16.904Z,12.30
2018-03-06T12:53:45.212Z,12.20
2018-03-06T12:56:14.157Z,12.20
2018-03-06T12:58:42.349Z,12.20
2018-03-06T13:01:14.775Z,12.40
2018-03-06T13:03:49.195Z,12.60
2018-03-06T13:06:18.278Z,12.80
2018-03-06T13:08:47.321Z,13.10
2018-03-06T13:11:15.982Z,13.10
2018-03-06T13:13:44.467Z,13.30
2018-03-06T13:16:13.583Z,13.40
2018-03-06T13:18:42.613Z,13.50
2018-03-06T13:21:11.558Z,13.70
2018-03-06T13:23:44.023Z,13.70
2018-03-06T13:26:15.141Z,13.70
2018-03-06T13:28:44.432Z,13.30
2018-03-06T13:31:12.928Z,12.70
2018-03-06T13:33:42.254Z,12.60
2018-03-06T13:36:12.325Z,12.60
2018-03-06T13:38:43.095Z,12.80
2018-03-06T13:41:11.523Z,13.00
2018-03-06T13:43:41.718Z,13.00
2018-03-06T13:46:10.386Z,12.90
2018-03-06T13:48:38.600Z,13.10
2018-03-06T13:51:07.165Z,13.40
2018-03-06T13:53:39.741Z,13.40
2018-03-06T13:56:07.904Z,13.50
2018-03-06T13:58:46.277Z,13.00
2018-03-06T14:01:15.978Z,12.80
2018-03-06T14:03:45.030Z,13.20
2018-03-06T14:06:14.430Z,13.20
2018-03-06T14:08:42.595Z,13.70
2018-03-06T14:11:11.035Z,13.90
2018-03-06T14:13:45.996Z,13.80
2018-03-06T14:16:14.231Z,13.90
2018-03-06T14:18:42.421Z,14.20
2018-03-06T14:21:10.609Z,14.50
2018-03-06T14:23:38.869Z,14.60
2018-03-06T14:26:08.161Z,14.60
2018-03-06T14:28:36.338Z,14.60
2018-03-06T14:31:04.496Z,14.60
2018-03-06T14:33:32.767Z,14.60
2018-03-06T14:36:00.949Z,14.50
2018-03-06T14:38:29.122Z,14.60
2018-03-06T14:40:57.347Z,14.20
2018-03-06T14:43:25.634Z,13.90
2018-03-06T14:45:53.838Z,13.60
2018-03-06T14:48:22.008Z,13.40
2018-03-06T14:50:50.170Z,13.20
2018-03-06T14:53:19.363Z,13.20
2018-03-06T14:55:47.543Z,13.10
2018-03-06T14:58:15.732Z,12.90
2018-03-06T15:00:44.164Z,12.60
2018-03-06T15:03:13.085Z,12.20
2018-03-06T15:05:42.043Z,12.20
2018-03-06T15:08:10.973Z,12.10
2018-03-06T15:10:39.135Z,12.10
2018-03-06T15:13:07.298Z,12.20
2018-03-06T15:15:35.484Z,12.30
2018-03-06T15:18:03.686Z,12.30
2018-03-06T15:20:32.069Z,12.30
2018-03-06T15:23:01.843Z,12.40
2018-03-06T15:25:30.727Z,12.40
2018-03-06T15:27:59.872Z,12.40
2018-03-06T15:30:28.098Z,12.30
2018-03-06T15:32:56.333Z,12.10
2018-03-06T15:35:25.869Z,11.80
2018-03-06T15:37:54.109Z,11.80
2018-03-06T15:40:23.671Z,11.70
2018-03-06T15:42:52.888Z,11.60
2018-03-06T15:45:21.255Z,11.60
2018-03-06T15:47:49.644Z,11.50
2018-03-06T15:50:17.905Z,11.30
2018-03-06T15:52:47.367Z,11.20
2018-03-06T15:55:17.583Z,11.10
2018-03-06T15:57:46.082Z,11.20
2018-03-06T16:00:15.941Z,11.20
2018-03-06T16:02:44.481Z,11.20
2018-03-06T16:05:12.895Z,11.10
2018-03-06T16:07:42.677Z,11.10
2018-03-06T16:10:10.925Z,11.20
2018-03-06T16:12:39.118Z,11.20
2018-03-06T16:15:08.110Z,11.10
2018-03-06T16:17:38.090Z,11.10
2018-03-06T16:20:06.316Z,11.10
2018-03-06T16:22:39.496Z,11.10
2018-03-06T16:25:09.341Z,10.70
2018-03-06T16:27:38.472Z,10.70
2018-03-06T16:30:06.964Z,10.50
2018-03-06T16:32:35.983Z,10.30
2018-03-06T16:35:04.696Z,10.10
2018-03-06T16:37:32.947Z,10.00
2018-03-06T16:40:01.134Z,9.80
2018-03-06T16:42:29.373Z,9.70
2018-03-06T16:44:59.696Z,9.60
2018-03-06T16:47:28.531Z,9.50
2018-03-06T16:49:56.746Z,9.40
2018-03-06T16:52:26.849Z,9.30
2018-03-06T16:54:55.092Z,9.30
2018-03-06T16:57:23.289Z,9.10
2018-03-06T16:59:51.473Z,9.00
2018-03-06T17:02:20.331Z,9.00
2018-03-06T17:04:48.813Z,8.80
2018-03-06T17:07:17.040Z,8.60
2018-03-06T17:09:46.093Z,8.40
2018-03-06T17:12:14.380Z,8.20
2018-03-06T17:14:42.724Z,8.10
2018-03-06T17:17:11.713Z,7.70
2018-03-06T17:19:40.728Z,7.60
2018-03-06T17:22:09.522Z,7.50
2018-03-06T17:24:38.688Z,7.50
2018-03-06T17:27:09.076Z,7.00
2018-03-06T17:29:37.504Z,7.00
2018-03-06T17:32:06.047Z,6.80
2018-03-06T17:34:35.679Z,6.60
2018-03-06T17:37:03.903Z,6.40
2018-03-06T17:39:32.836Z,6.10
2018-03-06T17:42:01.147Z,5.90
2018-03-06T17:44:29.926Z,5.80
2018-03-06T17:46:58.913Z,5.70
2018-03-06T17:49:28.754Z,5.70
2018-03-06T17:51:57.663Z,5.70
2018-03-06T17:54:25.964Z,5.60
2018-03-06T17:56:54.172Z,5.60
2018-03-06T17:59:23.556Z,5.60
2018-03-06T18:01:51.748Z,5.60
2018-03-06T18:04:23.421Z,5.60
2018-03-06T18:06:52.446Z,5.60
2018-03-06T18:09:21.495Z,5.50
2018-03-06T18:11:50.566Z,5.30
2018-03-06T18:14:19.811Z,5.20
2018-03-06T18:16:48.089Z,5.30
2018-03-06T18:19:16.315Z,5.30
2018-03-06T18:21:44.574Z,5.30
2018-03-06T18:24:14.064Z,5.20
2018-03-06T18:26:46.331Z,5.00
2018-03-06T18:29:14.786Z,4.90
2018-03-06T18:31:43.970Z,4.90
2018-03-06T18:34:16.580Z,4.60
2018-03-06T18:36:44.863Z,4.60
2018-03-06T18:39:13.765Z,4.40
2018-03-06T18:41:41.966Z,4.30
2018-03-06T18:44:11.488Z,4.30
2018-03-06T18:46:40.330Z,4.30
2018-03-06T18:49:09.399Z,4.20
2018-03-06T18:51:38.574Z,4.20
2018-03-06T18:54:07.402Z,4.20
2018-03-06T18:56:36.199Z,4.20
2018-03-06T18:59:04.507Z,4.00
2018-03-06T19:01:58.389Z,3.80
2018-03-06T19:04:39.264Z,3.90
2018-03-06T19:09:58.888Z,3.80
2018-03-06T19:12:28.337Z,3.70
2018-03-06T19:14:56.669Z,3.70
2018-03-06T19:17:26.822Z,3.60
2018-03-06T19:19:56.165Z,3.60
2018-03-06T19:22:26.370Z,3.70
2018-03-06T19:24:54.647Z,3.70
2018-03-06T19:27:23.031Z,3.60
2018-03-06T19:29:51.279Z,3.60
2018-03-06T19:32:21.488Z,3.50
2018-03-06T19:34:50.427Z,3.50
2018-03-06T19:37:18.596Z,3.60
2018-03-06T19:39:46.821Z,3.70
2018-03-06T19:42:15.049Z,3.70
2018-03-06T19:44:44.028Z,3.80
2018-03-06T19:47:13.106Z,3.80
2018-03-06T19:49:41.304Z,3.90
2018-03-06T19:52:09.502Z,4.00
2018-03-06T19:54:37.681Z,4.20
2018-03-06T19:57:05.839Z,4.20
2018-03-06T19:59:34.043Z,4.30
2018-03-06T20:02:03.271Z,4.40
2018-03-06T20:04:31.535Z,4.30
2018-03-06T20:06:59.995Z,4.20
2018-03-06T20:09:28.770Z,4.20
2018-03-06T20:11:58.645Z,4.10
2018-03-06T20:14:32.606Z,4.20
2018-03-06T20:17:02.359Z,4.10
2018-03-06T20:19:36.800Z,4.10
2018-03-06T20:22:05.776Z,4.20
2018-03-06T20:24:40.914Z,4.30
2018-03-06T20:27:09.650Z,4.40
2018-03-06T20:29:38.683Z,4.40
2018-03-06T20:32:12.554Z,4.50
2018-03-06T20:34:41.587Z,4.70
2018-03-06T20:37:09.822Z,4.60
2018-03-06T20:39:43.484Z,4.70
2018-03-06T20:42:12.220Z,4.70
2018-03-06T20:44:41.285Z,4.80
2018-03-06T20:47:15.050Z,4.70
2018-03-06T20:49:43.196Z,4.80
2018-03-06T20:52:12.351Z,4.90
2018-03-06T20:54:47.764Z,4.90
2018-03-06T20:57:15.953Z,4.90
2018-03-06T20:59:44.114Z,4.80
2018-03-06T21:02:12.355Z,4.80
2018-03-06T21:04:41.387Z,4.80
2018-03-06T21:07:09.570Z,4.80
2018-03-06T21:09:38.588Z,4.80
2018-03-06T21:12:06.990Z,4.90
2018-03-06T21:14:35.309Z,4.90
2018-03-06T21:17:03.464Z,4.90
2018-03-06T21:19:31.709Z,4.90
2018-03-06T21:21:59.935Z,5.00
2018-03-06T21:24:28.206Z,5.00
2018-03-06T21:26:56.376Z,5.00
2018-03-06T21:29:25.438Z,5.00
2018-03-06T21:31:54.379Z,5.10
2018-03-06T21:34:24.573Z,5.10
2018-03-06T21:36:52.729Z,5.10
2018-03-06T21:39:21.669Z,5.10
2018-03-06T21:41:50.453Z,5.10
2018-03-06T21:44:18.698Z,5.10
2018-03-06T21:46:46.863Z,5.10
2018-03-06T21:49:15.797Z,5.10
2018-03-06T21:51:43.951Z,5.10
2018-03-06T21:54:12.234Z,5.10
2018-03-06T21:56:40.388Z,5.10
2018-03-06T21:59:08.550Z,5.10
2018-03-06T22:01:36.714Z,5.20
2018-03-06T22:04:05.734Z,5.30
2018-03-06T22:06:33.884Z,5.30
2018-03-06T22:09:02.797Z,5.50
2018-03-06T22:11:30.952Z,5.50
2018-03-06T22:13:59.889Z,5.60
2018-03-06T22:16:28.058Z,5.50
2018-03-06T22:18:57.523Z,5.60
2018-03-06T22:21:29.177Z,5.60
2018-03-06T22:23:59.123Z,5.70
2018-03-06T22:26:27.274Z,5.70
2018-03-06T22:28:56.211Z,5.90
2018-03-06T22:31:24.382Z,5.80
2018-03-06T22:33:52.643Z,5.80
2018-03-06T22:36:20.872Z,5.70
2018-03-06T22:38:49.029Z,5.60
2018-03-06T22:41:17.212Z,5.50
2018-03-06T22:43:45.397Z,5.50
2018-03-06T22:46:14.345Z,5.50
2018-03-06T22:48:42.494Z,5.50
2018-03-06T22:51:10.661Z,5.50
2018-03-06T22:53:39.676Z,5.50
2018-03-06T22:56:07.834Z,5.50
2018-03-06T22:58:36.729Z,5.50
2018-03-06T23:01:06.946Z,5.60
2018-03-06T23:03:35.227Z,5.60
2018-03-06T23:06:03.395Z,5.60
2018-03-06T23:08:31.618Z,5.70
2018-03-06T23:10:59.813Z,5.70
2018-03-06T23:13:28.935Z,5.70
2018-03-06T23:15:57.115Z,5.70
2018-03-06T23:18:27.120Z,5.70
2018-03-06T23:20:56.077Z,5.70
2018-03-06T23:23:36.473Z,5.70
2018-03-06T23:26:05.423Z,5.60
2018-03-06T23:28:39.273Z,5.60
2018-03-06T23:31:08.204Z,5.60
2018-03-06T23:33:48.327Z,5.50
2018-03-06T23:36:16.478Z,5.60
2018-03-06T23:38:48.492Z,5.60
2018-03-06T23:41:16.644Z,5.60
2018-03-06T23:43:44.926Z,5.60
2018-03-06T23:46:13.077Z,5.70
2018-03-06T23:48:42.002Z,5.80
2018-03-06T23:51:10.163Z,5.80
2018-03-06T23:53:39.478Z,5.80
2018-03-06T23:56:07.654Z,5.90
2018-03-06T23:58:35.822Z,5.90
